Time;durP1;ratioP1;P1;durP2;ratioP2;P2;SDS_P1;SDS_P2;PMS_P1;PMS_P2;Temp;Humidity;BMP_temperature;BMP_pressure;BME280_temperature;BME280_humidity;BME280_pressure;Samples;Min_cycle;Max_cycle;Signal;HPM_P1;HPM_P2
2022/06/05 00:06:23;;;;;;;20.8;35.2;;;;;;;-133;100;65220;;;;
2022/06/05 00:17:23;;;;;;;20.8;35.2;;;;;;;-133;100;65210;;;;
2022/06/05 00:27:23;;;;;;;20.8;35.2;;;;;;;-133;100;65210;;;;
2022/06/05 00:38:23;;;;;;;20.5;26.6;;;;;;;-133;100;65220;;;;
2022/06/05 00:49:23;;;;;;;20.5;26.6;;;;;;;-133;100;65220;;;;
2022/06/05 01:00:23;;;;;;;20.5;26.6;;;;;;;-133;100;65210;;;;
2022/06/05 01:10:23;;;;;;;21;23.4;;;;;;;-133;100;65220;;;;
2022/06/05 01:21:23;;;;;;;21;23.4;;;;;;;-133;100;65210;;;;
2022/06/05 01:31:23;;;;;;;21;23.4;;;;;;;-133;100;65210;;;;
2022/06/05 01:42:23;;;;;;;18.6;20.8;;;;;;;-133;100;65220;;;;
2022/06/05 01:52:23;;;;;;;18.6;20.8;;;;;;;-133;100;65220;;;;
2022/06/05 02:03:23;;;;;;;18.6;20.8;;;;;;;-133;100;65210;;;;
2022/06/05 02:13:23;;;;;;;18;22;;;;;;;-133;100;65220;;;;
2022/06/05 02:24:23;;;;;;;18;22;;;;;;;-133;100;65210;;;;
2022/06/05 02:34:26;;;;;;;18.5;21.1;;;;;;;-133;100;65210;;;;
2022/06/05 02:45:23;;;;;;;18.5;21.1;;;;;;;-133;100;65210;;;;
2022/06/05 02:56:23;;;;;;;18.5;21.1;;;;;;;-133;100;65220;;;;
2022/06/05 03:06:23;;;;;;;19.5;22.1;;;;;;;-133;100;65210;;;;
2022/06/05 03:16:23;;;;;;;19.5;22.1;;;;;;;-133;100;65210;;;;
2022/06/05 03:27:23;;;;;;;19.5;22.1;;;;;;;-133;100;65210;;;;
2022/06/05 03:38:23;;;;;;;20.1;33.7;;;;;;;-133;100;65210;;;;
2022/06/05 03:48:23;;;;;;;20.1;33.7;;;;;;;-133;100;65210;;;;
2022/06/05 03:59:23;;;;;;;20.1;33.7;;;;;;;-133;100;65210;;;;
2022/06/05 04:09:23;;;;;;;22.1;37.1;;;;;;;-133;100;65210;;;;
2022/06/05 04:19:23;;;;;;;22.1;37.1;;;;;;;-133;100;65210;;;;
2022/06/05 04:29:23;;;;;;;22.1;37.1;;;;;;;-133;100;65210;;;;
2022/06/05 04:39:23;;;;;;;18.9;32.8;;;;;;;-133;100;65210;;;;
2022/06/05 04:50:23;;;;;;;18.9;32.8;;;;;;;-133;100;65210;;;;
2022/06/05 05:00:23;;;;;;;18.9;32.8;;;;;;;-133;100;65210;;;;
2022/06/05 05:10:23;;;;;;;22;42.2;;;;;;;-133;100;65210;;;;
2022/06/05 05:21:23;;;;;;;22;42.2;;;;;;;-133;100;65210;;;;
2022/06/05 05:31:23;;;;;;;22;42.2;;;;;;;-133;100;65210;;;;
2022/06/05 05:42:23;;;;;;;21.3;25.6;;;;;;;-133;99.4;65210;;;;
2022/06/05 05:52:23;;;;;;;21.3;25.6;;;;;;;-133;99;65210;;;;
2022/06/05 06:02:23;;;;;;;21.3;25.6;;;;;;;-133;97.2;65210;;;;
2022/06/05 06:13:23;;;;;;;23.9;27.3;;;;;;;-133;96.9;65210;;;;
2022/06/05 06:23:23;;;;;;;23.9;27.3;;;;;;;-133;95.7;65210;;;;
2022/06/05 06:33:23;;;;;;;23.9;27.3;;;;;;;-133;93.3;65210;;;;
2022/06/05 06:43:23;;;;;;;32.7;39.5;;;;;;;-133;89.5;65210;;;;
2022/06/05 06:53:23;;;;;;;32.7;39.5;;;;;;;-133;88.9;65210;;;;
2022/06/05 07:03:23;;;;;;;32.7;39.5;;;;;;;-133;88.6;65210;;;;
2022/06/05 07:14:25;;;;;;;32.9;37;;;;;;;-133;87.1;65210;;;;
2022/06/05 07:25:23;;;;;;;32.9;37;;;;;;;-133;87.6;65210;;;;
2022/06/05 07:36:25;;;;;;;28.5;33.2;;;;;;;-133;87.1;65210;;;;
2022/06/05 07:46:23;;;;;;;28.5;33.2;;;;;;;-133;85.8;65210;;;;
2022/06/05 07:56:23;;;;;;;28.5;33.2;;;;;;;-133;84.6;65210;;;;
2022/06/05 08:06:23;;;;;;;26.1;30.3;;;;;;;-133;79.2;65210;;;;
2022/06/05 08:17:23;;;;;;;26.1;30.3;;;;;;;-133;77.8;65210;;;;
2022/06/05 08:27:24;;;;;;;26.1;30.3;;;;;;;-133;75.6;65210;;;;
2022/06/05 08:49:23;;;;;;;21.6;26;;;;;;;-133;76.8;65210;;;;
2022/06/05 08:59:23;;;;;;;21.6;26;;;;;;;-133;73;65210;;;;
2022/06/05 09:10:24;;;;;;;18.9;22.4;;;;;;;-133;71.8;65200;;;;
2022/06/05 09:21:24;;;;;;;18.9;22.4;;;;;;;-133;67.4;65200;;;;
2022/06/05 09:31:23;;;;;;;18.9;22.4;;;;;;;-133;63.9;65200;;;;
2022/06/05 09:41:23;;;;;;;13.7;16.3;;;;;;;-133;60.3;65200;;;;
2022/06/05 09:52:24;;;;;;;13.7;16.3;;;;;;;-133;61.1;65200;;;;
2022/06/05 10:02:24;;;;;;;13.7;16.3;;;;;;;-133;53.8;65200;;;;
2022/06/05 10:12:24;;;;;;;9.4;11.8;;;;;;;-133;53.5;65200;;;;
2022/06/05 10:23:23;;;;;;;9.4;11.8;;;;;;;-133;55;65190;;;;
2022/06/05 10:34:24;;;;;;;5.5;8;;;;;;;-133;48.5;65200;;;;
2022/06/05 10:45:24;;;;;;;5.5;8;;;;;;;-133;47.7;65190;;;;
2022/06/05 10:55:23;;;;;;;5.5;8;;;;;;;-133;50.4;65190;;;;
2022/06/05 11:06:25;;;;;;;5.5;9.2;;;;;;;-133;49.6;65190;;;;
2022/06/05 11:17:23;;;;;;;5.5;9.2;;;;;;;-133;48;65190;;;;
2022/06/05 11:27:24;;;;;;;5.5;9.2;;;;;;;-133;51.2;65190;;;;
2022/06/05 11:38:23;;;;;;;4.7;7.3;;;;;;;-133;46;65190;;;;
2022/06/05 11:49:23;;;;;;;4.7;7.3;;;;;;;-133;46.6;65190;;;;
2022/06/05 11:59:24;;;;;;;4.7;7.3;;;;;;;-133;41.7;65190;;;;
2022/06/05 12:10:24;;;;;;;4.6;6.3;;;;;;;-133;41.9;65190;;;;
2022/06/05 12:20:24;;;;;;;4.6;6.3;;;;;;;-133;41;65190;;;;
2022/06/05 12:31:24;;;;;;;4.6;6.3;;;;;;;-133;40.5;65190;;;;
2022/06/05 12:41:24;;;;;;;3.7;5.5;;;;;;;-133;42.8;65190;;;;
2022/06/05 12:52:24;;;;;;;3.7;5.5;;;;;;;-133;41;65190;;;;
2022/06/05 13:03:24;;;;;;;3.7;5.5;;;;;;;-133;41.8;65190;;;;
2022/06/05 13:13:24;;;;;;;4.4;6.9;;;;;;;-133;43.3;65200;;;;
2022/06/05 13:23:24;;;;;;;4.4;6.9;;;;;;;-133;44.7;65200;;;;
2022/06/05 13:33:24;;;;;;;4.4;6.9;;;;;;;-133;42.4;65200;;;;
2022/06/05 13:44:24;;;;;;;4.1;6.5;;;;;;;-133;41.1;65200;;;;
2022/06/05 13:54:24;;;;;;;4.1;6.5;;;;;;;-133;44.7;65200;;;;
2022/06/05 14:04:24;;;;;;;3.6;5.6;;;;;;;-133;40.7;65200;;;;
2022/06/05 14:15:24;;;;;;;3.6;5.6;;;;;;;-133;40;65200;;;;
2022/06/05 14:25:24;;;;;;;3.6;5.6;;;;;;;-133;42.8;65200;;;;
2022/06/05 14:35:24;;;;;;;2.9;5.3;;;;;;;-133;39.5;65210;;;;
2022/06/05 14:45:24;;;;;;;2.9;5.3;;;;;;;-133;37.8;65210;;;;
2022/06/05 15:06:24;;;;;;;3.2;5.8;;;;;;;-133;34.7;65210;;;;
2022/06/05 15:16:24;;;;;;;3.2;5.8;;;;;;;-133;31.3;65210;;;;
2022/06/05 15:26:24;;;;;;;3.2;5.8;;;;;;;-133;36.2;65210;;;;
2022/06/05 15:36:24;;;;;;;2.6;4.6;;;;;;;-133;29.7;65210;;;;
2022/06/05 15:47:24;;;;;;;2.6;4.6;;;;;;;-133;26.6;65210;;;;
2022/06/05 15:58:28;;;;;;;2.6;4.6;;;;;;;-133;28.3;65210;;;;
2022/06/05 16:07:24;;;;;;;2.4;5.3;;;;;;;-133;29.5;65210;;;;
2022/06/05 16:17:24;;;;;;;2.4;5.3;;;;;;;-133;27.3;65210;;;;
2022/06/05 16:28:27;;;;;;;2.4;5.3;;;;;;;-133;26;65210;;;;
2022/06/05 16:38:24;;;;;;;2;4.6;;;;;;;-133;28;65220;;;;
2022/06/05 16:49:24;;;;;;;2;4.6;;;;;;;-133;25.5;65220;;;;
2022/06/05 16:59:24;;;;;;;2;4.6;;;;;;;-133;26.2;65220;;;;
2022/06/05 17:09:24;;;;;;;2.4;4;;;;;;;-133;28.3;65230;;;;
2022/06/05 17:19:24;;;;;;;2.4;4;;;;;;;-133;34.7;65230;;;;
2022/06/05 17:30:25;;;;;;;2.4;4;;;;;;;-133;37;65230;;;;
2022/06/05 17:40:24;;;;;;;4;6.1;;;;;;;-133;34.8;65230;;;;
2022/06/05 17:51:24;;;;;;;4;6.1;;;;;;;-133;33;65230;;;;
2022/06/05 18:02:24;;;;;;;4;6.1;;;;;;;-133;37.2;65240;;;;
2022/06/05 18:13:24;;;;;;;4.5;6.8;;;;;;;-133;41.1;65240;;;;
2022/06/05 18:24:24;;;;;;;4.5;6.8;;;;;;;-133;44.6;65240;;;;
2022/06/05 18:35:24;;;;;;;20.7;23.7;;;;;;;-133;46.7;65240;;;;
2022/06/05 18:46:24;;;;;;;20.7;23.7;;;;;;;-133;47;65240;;;;
2022/06/05 18:56:24;;;;;;;20.7;23.7;;;;;;;-133;47.7;65250;;;;
2022/06/05 19:07:24;;;;;;;8.9;12.6;;;;;;;-133;48.1;65240;;;;
2022/06/05 19:17:24;;;;;;;8.9;12.6;;;;;;;-133;47;65250;;;;
2022/06/05 19:28:24;;;;;;;8.9;12.6;;;;;;;-133;49;65250;;;;
2022/06/05 19:38:24;;;;;;;5.3;10.5;;;;;;;-133;50.2;65250;;;;
2022/06/05 19:48:24;;;;;;;5.3;10.5;;;;;;;-133;52.9;65250;;;;
2022/06/05 19:58:24;;;;;;;5.3;10.5;;;;;;;-133;54.8;65240;;;;
2022/06/05 20:08:24;;;;;;;5;7.8;;;;;;;-133;56.3;65240;;;;
2022/06/05 20:18:25;;;;;;;5;7.8;;;;;;;-133;58.2;65240;;;;
2022/06/05 20:28:24;;;;;;;5;7.8;;;;;;;-133;60.8;65250;;;;
2022/06/05 20:38:24;;;;;;;4.7;7.3;;;;;;;-133;61.9;65240;;;;
2022/06/05 20:49:24;;;;;;;4.7;7.3;;;;;;;-133;63.8;65240;;;;
2022/06/05 20:59:25;;;;;;;4.7;7.3;;;;;;;-133;65.8;65240;;;;
2022/06/05 21:16:55;;;;;;;6.4;12.3;;;;;;;-133;66.1;65240;;;;
2022/06/05 21:21:24;;;;;;;6.4;12.3;;;;;;;-133;67.4;65240;;;;
2022/06/05 21:31:24;;;;;;;6.4;12.3;;;;;;;-133;68.2;65240;;;;
2022/06/05 21:42:25;;;;;;;6.7;9.6;;;;;;;-133;68.1;65240;;;;
2022/06/05 21:52:24;;;;;;;6.7;9.6;;;;;;;-133;69.7;65240;;;;
2022/06/05 22:02:24;;;;;;;6.7;9.6;;;;;;;-133;70.1;65250;;;;
2022/06/05 22:13:24;;;;;;;6.2;9.6;;;;;;;-133;71;65250;;;;
2022/06/05 22:24:24;;;;;;;6.2;9.6;;;;;;;-133;72;65240;;;;
2022/06/05 22:35:24;;;;;;;6;9.4;;;;;;;-133;74.1;65240;;;;
2022/06/05 22:45:24;;;;;;;6;9.4;;;;;;;-133;76.9;65250;;;;
2022/06/05 22:55:25;;;;;;;6;9.4;;;;;;;-133;75.8;65250;;;;
2022/06/05 23:06:24;;;;;;;6.6;8.2;;;;;;;-133;77.7;65240;;;;
2022/06/05 23:17:24;;;;;;;6.6;8.2;;;;;;;-133;77.1;65240;;;;
2022/06/05 23:27:24;;;;;;;6.6;8.2;;;;;;;-133;76.8;65250;;;;
2022/06/05 23:37:24;;;;;;;7.3;11.3;;;;;;;-133;78.3;65240;;;;
2022/06/05 23:48:24;;;;;;;7.3;11.3;;;;;;;-133;79.7;65250;;;;
2022/06/05 23:58:24;;;;;;;7.3;11.3;;;;;;;-133;80.8;65250;;;;
